CYHU

Montréal / Saint-Hubert Airport

Montréal, Quebec, Canada
METAR CYHU 251645Z AUTO 16012G21KT 5SM -RA BR SCT010 BKN016 OVC047 11/10 A3026 RMK SLP250
Observed Flight Rules
Sep-25 @ 16:45 UTC (18 minutes ago) Marginal Visual Flight Rules
Wind Visibility Clouds Conditions
160° at 12 knots
 Gusting to 21 knots
5 miles
  • Scattered at 1,000' AGL
  • Broken at 1,600' AGL
  • Overcast at 4,700' AGL
  • Light Rain
  • Mist
Temperatures Readings
Current 11°C / 52°F
Dewpoint 10°C / 50°F
Humidity 94%
Altimeter 30.26" Hg
Pressure 1025 hPa
Elevation 27
METAR CYHU 251645Z AUTO 16012G21KT 5SM -RA BR SCT010 BKN016 OVC047 11/10 A3026 RMK SLP250
Observed Flight Rules
Sep-25 @ 16:45 UTC
(18 minutes ago)
MVFR
Wind Visibility
160° at 12 knots
 Gusting to 21 knots
5 miles
Clouds
  • Scattered at 1,000' AGL
  • Broken at 1,600' AGL
  • Overcast at 4,700' AGL
Conditions
  • Light Rain
  • Mist
Temperature Dewpoint
11°C / 52°F 10°C / 50°F
Humidity Altimeter Pressure
94% 30.26" Hg 1025 hPa